Time;durP1;ratioP1;P1;durP2;ratioP2;P2;SDS_P1;SDS_P2;PMS_P1;PMS_P2;Temp;Humidity;BMP_temperature;BMP_pressure;BME280_temperature;BME280_humidity;BME280_pressure;Samples;Min_cycle;Max_cycle;Signal;HPM_P1;HPM_P2
2021/10/13 00:00:17;;;;;;;;;;;9.50;99.90;;;;;;4997253;28;20027;-79
2021/10/13 00:02:42;;;;;;;;;;;9.40;99.90;;;;;;5025893;28;20437;-79
2021/10/13 00:05:08;;;;;;;;;;;9.30;99.90;;;;;;5015046;28;19922;-79
2021/10/13 00:07:34;;;;;;;;;;;9.30;99.90;;;;;;5033948;28;19913;-78
2021/10/13 00:10:00;;;;;;;;;;;9.30;99.90;;;;;;5025569;28;19960;-79
2021/10/13 00:12:26;;;;;;;;;;;9.30;99.90;;;;;;4995952;28;19917;-78
2021/10/13 00:14:53;;;;;;;;;;;9.20;99.90;;;;;;4995190;28;19928;-78
2021/10/13 00:17:19;;;;;;;;;;;9.30;99.90;;;;;;4995901;28;19910;-77
2021/10/13 00:19:44;;;;;;;;;;;9.30;99.90;;;;;;4995996;28;19916;-78
2021/10/13 00:22:10;;;;;;;;;;;9.20;99.90;;;;;;4996587;28;19909;-80
2021/10/13 00:24:36;;;;;;;;;;;9.20;99.90;;;;;;5010237;28;20313;-78
2021/10/13 00:27:01;;;;;;;;;;;9.20;99.90;;;;;;5017772;28;19914;-84
2021/10/13 00:29:27;;;;;;;;;;;9.10;99.90;;;;;;5004203;28;20417;-82
2021/10/13 00:31:53;;;;;;;;;;;9.20;99.90;;;;;;5023599;28;20432;-83
2021/10/13 00:34:18;;;;;;;;;;;9.10;99.90;;;;;;5004810;28;19917;-82
2021/10/13 00:36:44;;;;;;;;;;;9.10;99.90;;;;;;5005811;28;19910;-84
2021/10/13 00:39:09;;;;;;;;;;;9.10;99.90;;;;;;5004765;28;20135;-83
2021/10/13 00:41:36;;;;;;;;;;;9.10;99.90;;;;;;5023225;28;19913;-83
2021/10/13 00:44:02;;;;;;;;;;;9.10;99.90;;;;;;5023822;28;19937;-81
2021/10/13 00:46:28;;;;;;;;;;;9.10;99.90;;;;;;5005331;28;19916;-82
2021/10/13 00:48:53;;;;;;;;;;;9.10;99.90;;;;;;5015356;28;19901;-81
2021/10/13 00:51:19;;;;;;;;;;;9.00;99.90;;;;;;5024430;28;19909;-80
2021/10/13 00:53:44;;;;;;;;;;;9.00;99.90;;;;;;5024741;28;19933;-79
2021/10/13 00:56:10;;;;;;;;;;;9.00;99.90;;;;;;5041825;28;19925;-79
2021/10/13 00:58:35;;;;;;;;;;;9.00;99.90;;;;;;5041562;28;19905;-80
2021/10/13 01:01:04;;;;;;;;;;;9.00;99.90;;;;;;5029838;28;19917;-84
2021/10/13 01:03:33;;;;;;;;;;;9.10;99.90;;;;;;5012256;28;19913;-82
2021/10/13 01:06:15;;;;;;;;;;;9.00;99.90;;;;;;5021926;28;20207;-82
2021/10/13 01:08:41;;;;;;;;;;;9.00;99.90;;;;;;5023014;28;19917;-83
2021/10/13 01:11:09;;;;;;;;;;;9.00;99.90;;;;;;5023946;28;19968;-81
2021/10/13 01:13:35;;;;;;;;;;;9.00;99.90;;;;;;5024636;28;19961;-80
2021/10/13 01:16:24;;;;;;;;;;;9.00;99.90;;;;;;5023750;28;19901;-80
2021/10/13 01:18:51;;;;;;;;;;;9.00;99.90;;;;;;5028648;28;19901;-80
2021/10/13 01:21:36;;;;;;;;;;;9.00;99.90;;;;;;5041175;28;19965;-80
2021/10/13 01:24:01;;;;;;;;;;;9.00;99.90;;;;;;5024569;28;19989;-80
2021/10/13 01:26:30;;;;;;;;;;;9.00;99.90;;;;;;5023926;28;19916;-80
2021/10/13 01:28:57;;;;;;;;;;;9.00;99.90;;;;;;5023584;28;19908;-80
2021/10/13 01:31:25;;;;;;;;;;;8.90;99.90;;;;;;5023762;28;19917;-81
2021/10/13 01:33:53;;;;;;;;;;;9.00;99.90;;;;;;5023229;28;19917;-81
2021/10/13 01:36:22;;;;;;;;;;;9.00;99.90;;;;;;5039672;28;19901;-81
2021/10/13 01:38:50;;;;;;;;;;;8.90;99.90;;;;;;5039779;28;19925;-81
2021/10/13 01:41:17;;;;;;;;;;;8.90;99.90;;;;;;5022681;28;19906;-82
2021/10/13 01:43:44;;;;;;;;;;;8.90;99.90;;;;;;5038618;28;19929;-81
2021/10/13 01:46:09;;;;;;;;;;;8.80;99.90;;;;;;5009723;28;19913;-82
2021/10/13 01:48:35;;;;;;;;;;;8.80;99.90;;;;;;5007332;28;19960;-82
2021/10/13 01:51:01;;;;;;;;;;;8.80;99.90;;;;;;5006884;28;19918;-80
2021/10/13 01:53:27;;;;;;;;;;;8.80;99.90;;;;;;5006041;28;20394;-81
2021/10/13 01:55:55;;;;;;;;;;;8.80;99.90;;;;;;5023316;28;19933;-81
2021/10/13 01:58:22;;;;;;;;;;;8.90;99.90;;;;;;5005718;28;19963;-81
2021/10/13 02:00:48;;;;;;;;;;;8.90;99.90;;;;;;5022027;28;20354;-81
2021/10/13 02:03:14;;;;;;;;;;;8.80;99.90;;;;;;5003241;28;19913;-81
2021/10/13 02:05:40;;;;;;;;;;;8.80;99.90;;;;;;5000578;28;19941;-82
2021/10/13 02:08:06;;;;;;;;;;;8.80;99.90;;;;;;4999191;28;20284;-80
2021/10/13 02:10:32;;;;;;;;;;;8.90;99.90;;;;;;4999668;28;20367;-82
2021/10/13 02:12:59;;;;;;;;;;;8.90;99.90;;;;;;4999303;28;19916;-80
2021/10/13 02:15:26;;;;;;;;;;;8.90;99.90;;;;;;4996932;28;20392;-80
2021/10/13 02:17:53;;;;;;;;;;;8.90;99.90;;;;;;4997075;28;19936;-80
2021/10/13 02:20:21;;;;;;;;;;;9.00;99.90;;;;;;4996492;28;19921;-80
2021/10/13 02:22:54;;;;;;;;;;;9.00;99.90;;;;;;4997207;28;20278;-80
2021/10/13 02:25:19;;;;;;;;;;;9.10;99.90;;;;;;4996376;28;19965;-80
2021/10/13 02:27:56;;;;;;;;;;;9.10;99.90;;;;;;4996627;28;19909;-80
2021/10/13 02:30:22;;;;;;;;;;;9.10;99.90;;;;;;4994359;28;20001;-80
2021/10/13 02:32:48;;;;;;;;;;;9.10;99.90;;;;;;4994531;28;20389;-80
2021/10/13 02:35:13;;;;;;;;;;;9.00;99.90;;;;;;4994706;28;19917;-80
2021/10/13 02:37:39;;;;;;;;;;;9.00;99.90;;;;;;4993794;28;20259;-79
2021/10/13 02:40:06;;;;;;;;;;;9.00;99.90;;;;;;4994527;28;19936;-80
2021/10/13 02:42:33;;;;;;;;;;;9.00;99.90;;;;;;4993896;28;19917;-80
2021/10/13 02:44:58;;;;;;;;;;;9.10;99.90;;;;;;4995395;28;20351;-80
2021/10/13 02:47:33;;;;;;;;;;;9.10;99.90;;;;;;4994997;28;19939;-79
2021/10/13 02:50:06;;;;;;;;;;;9.10;99.90;;;;;;4994047;28;19917;-80
2021/10/13 02:52:36;;;;;;;;;;;9.00;99.90;;;;;;4993896;28;20362;-79
2021/10/13 02:55:03;;;;;;;;;;;9.10;99.90;;;;;;4995528;28;19953;-79
2021/10/13 02:57:48;;;;;;;;;;;9.00;99.90;;;;;;4995529;28;19913;-79
2021/10/13 03:00:15;;;;;;;;;;;9.00;99.90;;;;;;4996307;28;19921;-79
2021/10/13 03:03:00;;;;;;;;;;;9.00;99.90;;;;;;4992760;28;19913;-81
2021/10/13 03:05:26;;;;;;;;;;;9.00;99.90;;;;;;4992412;28;20298;-80
2021/10/13 03:07:54;;;;;;;;;;;9.00;99.90;;;;;;4995146;28;19910;-80
2021/10/13 03:10:22;;;;;;;;;;;9.00;99.90;;;;;;4994431;28;19959;-80
2021/10/13 03:12:55;;;;;;;;;;;9.00;99.90;;;;;;4992856;28;19957;-81
2021/10/13 03:15:21;;;;;;;;;;;8.90;99.90;;;;;;4992968;28;19924;-81
2021/10/13 03:17:50;;;;;;;;;;;8.90;99.90;;;;;;4994158;28;20032;-81
2021/10/13 03:20:16;;;;;;;;;;;8.90;99.90;;;;;;4994461;28;20353;-81
2021/10/13 03:22:43;;;;;;;;;;;8.90;99.90;;;;;;4992418;28;19945;-81
2021/10/13 03:25:08;;;;;;;;;;;9.00;99.90;;;;;;4994271;28;20286;-81
2021/10/13 03:27:34;;;;;;;;;;;9.00;99.90;;;;;;4992801;28;19914;-80
2021/10/13 03:29:59;;;;;;;;;;;9.00;99.90;;;;;;4993144;28;19914;-80
2021/10/13 03:32:25;;;;;;;;;;;9.00;99.90;;;;;;4992304;28;20000;-79
2021/10/13 03:34:50;;;;;;;;;;;9.00;99.90;;;;;;4993696;28;19972;-80
2021/10/13 03:37:17;;;;;;;;;;;9.10;99.90;;;;;;4994104;28;19910;-79
2021/10/13 03:39:45;;;;;;;;;;;9.10;99.90;;;;;;4992594;28;19918;-79
2021/10/13 03:42:11;;;;;;;;;;;9.10;99.90;;;;;;4989915;28;19941;-80
2021/10/13 03:44:36;;;;;;;;;;;9.20;99.90;;;;;;4992704;28;19910;-80
2021/10/13 03:47:02;;;;;;;;;;;9.20;99.90;;;;;;4992802;28;19918;-81
2021/10/13 03:49:28;;;;;;;;;;;9.20;99.90;;;;;;4994048;28;19910;-81
2021/10/13 03:51:53;;;;;;;;;;;9.20;99.90;;;;;;4992612;28;19914;-79
2021/10/13 03:54:19;;;;;;;;;;;9.20;99.90;;;;;;4992796;28;19914;-81
2021/10/13 03:56:44;;;;;;;;;;;9.20;99.90;;;;;;4992723;28;20412;-82
2021/10/13 03:59:10;;;;;;;;;;;9.20;99.90;;;;;;4992858;28;19914;-81
2021/10/13 04:01:35;;;;;;;;;;;9.20;99.90;;;;;;4997442;28;19909;-81
2021/10/13 04:04:01;;;;;;;;;;;9.30;99.90;;;;;;4996169;28;19914;-81
2021/10/13 04:06:26;;;;;;;;;;;9.30;99.90;;;;;;4996183;28;19918;-81
2021/10/13 04:08:52;;;;;;;;;;;9.30;99.90;;;;;;4996381;28;20341;-81
2021/10/13 04:11:17;;;;;;;;;;;9.40;99.90;;;;;;4996715;28;19909;-81
2021/10/13 04:13:44;;;;;;;;;;;9.40;99.90;;;;;;4997791;28;19910;-81
2021/10/13 04:16:10;;;;;;;;;;;9.40;99.90;;;;;;4996325;28;19961;-82
2021/10/13 04:18:35;;;;;;;;;;;9.40;99.90;;;;;;4997295;28;19949;-81
2021/10/13 04:21:01;;;;;;;;;;;9.40;99.90;;;;;;4996015;28;19914;-81
2021/10/13 04:23:26;;;;;;;;;;;9.40;99.90;;;;;;4996056;28;19968;-81
2021/10/13 04:25:52;;;;;;;;;;;9.40;99.90;;;;;;4996926;28;20366;-81
2021/10/13 04:28:17;;;;;;;;;;;9.40;99.90;;;;;;4997284;28;19914;-80
2021/10/13 04:30:43;;;;;;;;;;;9.40;99.90;;;;;;4996122;28;19913;-80
2021/10/13 04:33:08;;;;;;;;;;;9.50;99.90;;;;;;4996006;28;20012;-80
2021/10/13 04:35:34;;;;;;;;;;;9.50;99.90;;;;;;4997075;28;19925;-81
2021/10/13 04:38:03;;;;;;;;;;;9.50;99.90;;;;;;4995707;28;20000;-81
2021/10/13 04:40:28;;;;;;;;;;;9.50;99.90;;;;;;4995658;28;19918;-81
2021/10/13 04:42:54;;;;;;;;;;;9.60;99.90;;;;;;4995709;28;19918;-81
2021/10/13 04:45:19;;;;;;;;;;;9.60;99.90;;;;;;4995592;28;20001;-81
2021/10/13 04:47:45;;;;;;;;;;;9.60;99.90;;;;;;4996827;28;20293;-79
2021/10/13 04:50:10;;;;;;;;;;;9.60;99.90;;;;;;4995715;28;20016;-80
2021/10/13 04:52:36;;;;;;;;;;;9.70;99.90;;;;;;4995297;28;20381;-80
2021/10/13 04:55:01;;;;;;;;;;;9.60;99.90;;;;;;4995116;28;19925;-80
2021/10/13 04:57:27;;;;;;;;;;;9.60;99.90;;;;;;4995634;28;20290;-79
2021/10/13 04:59:54;;;;;;;;;;;9.60;99.90;;;;;;4996654;28;20121;-80
2021/10/13 05:02:20;;;;;;;;;;;9.50;99.90;;;;;;4994846;28;19972;-80
2021/10/13 05:04:46;;;;;;;;;;;9.50;99.90;;;;;;4997149;28;19914;-82
2021/10/13 05:07:11;;;;;;;;;;;9.50;99.90;;;;;;5016084;28;20380;-81
2021/10/13 05:09:37;;;;;;;;;;;9.50;99.90;;;;;;5016058;28;19913;-81
2021/10/13 05:12:02;;;;;;;;;;;9.50;99.90;;;;;;4997959;28;19956;-80
2021/10/13 05:14:28;;;;;;;;;;;9.50;99.90;;;;;;4998513;28;19924;-81
2021/10/13 05:16:53;;;;;;;;;;;9.40;99.90;;;;;;5015949;28;19916;-81
2021/10/13 05:19:19;;;;;;;;;;;9.40;99.90;;;;;;4998066;28;19918;-81
2021/10/13 05:21:44;;;;;;;;;;;9.40;99.90;;;;;;4998023;28;19909;-81
2021/10/13 05:24:11;;;;;;;;;;;9.30;99.90;;;;;;4998375;28;19914;-81
2021/10/13 05:26:37;;;;;;;;;;;9.30;99.90;;;;;;4997730;28;19910;-81
2021/10/13 05:29:03;;;;;;;;;;;9.30;99.90;;;;;;5016376;28;19914;-81
2021/10/13 05:31:28;;;;;;;;;;;9.30;99.90;;;;;;5016405;28;19909;-81
2021/10/13 05:33:54;;;;;;;;;;;9.30;99.90;;;;;;4998000;28;19916;-81
2021/10/13 05:36:20;;;;;;;;;;;9.40;99.90;;;;;;4996613;28;19921;-81
2021/10/13 05:38:47;;;;;;;;;;;9.40;99.90;;;;;;4998443;28;19936;-81
2021/10/13 05:41:12;;;;;;;;;;;9.40;99.90;;;;;;4997428;28;19924;-82
2021/10/13 05:43:38;;;;;;;;;;;9.40;99.90;;;;;;4998328;28;19910;-81
2021/10/13 05:46:03;;;;;;;;;;;9.40;99.90;;;;;;4997893;28;19917;-83
2021/10/13 05:48:29;;;;;;;;;;;9.50;99.90;;;;;;4998575;28;19964;-81
2021/10/13 05:50:54;;;;;;;;;;;9.50;99.90;;;;;;4997701;28;19960;-81
2021/10/13 05:53:22;;;;;;;;;;;9.50;99.90;;;;;;5015280;28;19910;-81
2021/10/13 05:55:48;;;;;;;;;;;9.50;99.90;;;;;;5015392;28;19924;-80
2021/10/13 05:58:16;;;;;;;;;;;9.50;99.90;;;;;;4997304;28;20336;-81
2021/10/13 06:00:41;;;;;;;;;;;9.50;99.90;;;;;;4997768;28;20358;-81
2021/10/13 06:03:07;;;;;;;;;;;9.40;99.90;;;;;;4997494;28;19963;-80
2021/10/13 06:05:32;;;;;;;;;;;9.40;99.90;;;;;;4997632;28;19924;-80
2021/10/13 06:07:58;;;;;;;;;;;9.40;99.90;;;;;;5015142;28;19913;-81
2021/10/13 06:10:24;;;;;;;;;;;9.30;99.90;;;;;;4997646;28;19913;-81
2021/10/13 06:12:49;;;;;;;;;;;9.40;99.90;;;;;;4998986;28;19916;-80
2021/10/13 06:15:15;;;;;;;;;;;9.40;99.90;;;;;;4997478;28;19921;-80
2021/10/13 06:17:40;;;;;;;;;;;9.40;99.90;;;;;;4996610;28;19913;-81
2021/10/13 06:20:06;;;;;;;;;;;9.40;99.90;;;;;;4997399;28;20333;-80
2021/10/13 06:22:31;;;;;;;;;;;9.40;99.90;;;;;;5014684;28;19920;-81
2021/10/13 06:24:57;;;;;;;;;;;9.50;99.90;;;;;;5014326;28;19913;-81
2021/10/13 06:27:23;;;;;;;;;;;9.50;99.90;;;;;;4997205;28;20267;-81
2021/10/13 06:29:49;;;;;;;;;;;9.50;99.90;;;;;;4996968;28;19952;-81
2021/10/13 06:32:14;;;;;;;;;;;9.50;99.90;;;;;;5014711;28;19914;-80
2021/10/13 06:34:40;;;;;;;;;;;9.50;99.90;;;;;;4995982;28;19925;-81
2021/10/13 06:37:05;;;;;;;;;;;9.50;99.90;;;;;;5014372;28;19963;-80
2021/10/13 06:39:31;;;;;;;;;;;9.50;99.90;;;;;;4996330;28;19913;-80
2021/10/13 06:41:56;;;;;;;;;;;9.50;99.90;;;;;;4996882;28;19917;-80
2021/10/13 06:44:22;;;;;;;;;;;9.50;99.90;;;;;;4996525;28;19959;-80
2021/10/13 06:46:49;;;;;;;;;;;9.50;99.90;;;;;;5014236;28;20393;-80
2021/10/13 06:49:15;;;;;;;;;;;9.50;99.90;;;;;;4996335;28;19913;-81
2021/10/13 06:51:42;;;;;;;;;;;9.60;99.90;;;;;;5014399;28;20400;-80
2021/10/13 06:54:07;;;;;;;;;;;9.70;99.90;;;;;;5013764;28;19924;-80
2021/10/13 06:56:33;;;;;;;;;;;9.80;99.90;;;;;;5013833;28;19913;-80
2021/10/13 06:58:58;;;;;;;;;;;9.90;99.90;;;;;;5014062;28;19914;-79
2021/10/13 07:01:24;;;;;;;;;;;10.00;99.90;;;;;;5013614;28;19913;-80
2021/10/13 07:03:49;;;;;;;;;;;10.10;99.90;;;;;;5014196;28;20017;-80
2021/10/13 07:06:15;;;;;;;;;;;10.20;99.90;;;;;;5014071;28;20317;-80
2021/10/13 07:08:40;;;;;;;;;;;10.30;99.90;;;;;;4996680;28;20326;-79
2021/10/13 07:11:09;;;;;;;;;;;10.40;99.90;;;;;;5013623;28;19914;-79
2021/10/13 07:13:36;;;;;;;;;;;10.50;99.90;;;;;;4995941;28;20425;-79
2021/10/13 07:16:02;;;;;;;;;;;10.60;99.90;;;;;;4996289;28;19922;-80
2021/10/13 07:18:27;;;;;;;;;;;10.70;99.90;;;;;;5013538;28;20004;-80
2021/10/13 07:20:53;;;;;;;;;;;10.80;99.90;;;;;;4996291;28;20366;-81
2021/10/13 07:23:18;;;;;;;;;;;10.90;99.90;;;;;;4995801;28;19921;-80
2021/10/13 07:25:44;;;;;;;;;;;11.00;99.90;;;;;;4995902;28;19943;-79
2021/10/13 07:28:13;;;;;;;;;;;11.10;99.90;;;;;;5013903;28;20380;-80
2021/10/13 07:30:38;;;;;;;;;;;11.10;99.90;;;;;;5010500;28;19910;-81
2021/10/13 07:33:05;;;;;;;;;;;11.20;99.90;;;;;;4996026;28;19991;-80
2021/10/13 07:35:31;;;;;;;;;;;11.20;99.90;;;;;;4995279;28;19918;-80
2021/10/13 07:37:57;;;;;;;;;;;11.30;99.90;;;;;;4995535;28;19917;-81
2021/10/13 07:40:23;;;;;;;;;;;11.40;99.90;;;;;;4995955;28;19913;-80
2021/10/13 07:42:49;;;;;;;;;;;11.50;99.90;;;;;;4988144;28;19921;-81
2021/10/13 07:45:15;;;;;;;;;;;11.60;99.90;;;;;;4992213;28;19964;-80
2021/10/13 07:47:41;;;;;;;;;;;11.70;99.90;;;;;;4986140;28;19913;-80
2021/10/13 07:50:07;;;;;;;;;;;11.90;99.90;;;;;;4995831;28;19940;-81
2021/10/13 07:52:32;;;;;;;;;;;12.00;99.90;;;;;;5013318;28;20373;-81
2021/10/13 07:54:58;;;;;;;;;;;12.00;99.90;;;;;;5013286;28;20002;-80
2021/10/13 07:57:23;;;;;;;;;;;12.00;99.90;;;;;;5012238;28;19921;-80
2021/10/13 07:59:50;;;;;;;;;;;12.00;99.90;;;;;;4994946;28;20350;-82
2021/10/13 08:02:16;;;;;;;;;;;11.90;99.90;;;;;;4995545;28;19917;-80
2021/10/13 08:04:41;;;;;;;;;;;11.80;99.90;;;;;;5014196;28;20429;-76
2021/10/13 08:07:07;;;;;;;;;;;11.80;99.90;;;;;;4994843;28;19917;-76
2021/10/13 08:09:33;;;;;;;;;;;11.90;99.90;;;;;;5012644;28;19932;-77
2021/10/13 08:11:59;;;;;;;;;;;11.90;99.90;;;;;;4970988;28;19921;-76
2021/10/13 08:14:24;;;;;;;;;;;12.00;99.90;;;;;;4954308;28;19918;-76
2021/10/13 08:16:50;;;;;;;;;;;12.00;99.90;;;;;;4961049;28;19941;-77
2021/10/13 08:19:15;;;;;;;;;;;12.00;99.90;;;;;;4971926;28;19910;-77
2021/10/13 08:21:41;;;;;;;;;;;12.00;99.90;;;;;;4954641;28;20363;-78
2021/10/13 08:24:06;;;;;;;;;;;12.10;99.90;;;;;;4971926;28;19961;-77
2021/10/13 08:26:32;;;;;;;;;;;12.10;99.90;;;;;;4955522;28;20310;-76
2021/10/13 08:28:57;;;;;;;;;;;12.10;99.90;;;;;;4967638;28;19911;-78
2021/10/13 08:31:23;;;;;;;;;;;12.10;99.90;;;;;;4961209;28;19940;-76
2021/10/13 08:33:49;;;;;;;;;;;12.20;99.90;;;;;;4955378;28;19914;-79
2021/10/13 08:36:15;;;;;;;;;;;12.20;99.90;;;;;;4955664;28;19917;-78
2021/10/13 08:38:40;;;;;;;;;;;12.30;99.90;;;;;;4958661;28;19921;-76
2021/10/13 08:41:06;;;;;;;;;;;12.30;99.90;;;;;;4974463;28;19914;-77
2021/10/13 08:43:32;;;;;;;;;;;12.30;99.90;;;;;;5002687;28;19920;-77
2021/10/13 08:45:58;;;;;;;;;;;12.20;99.90;;;;;;5012833;28;19913;-77
2021/10/13 08:48:23;;;;;;;;;;;12.20;99.90;;;;;;4998682;28;20301;-76
2021/10/13 08:50:49;;;;;;;;;;;12.20;99.90;;;;;;5016709;28;19910;-78
2021/10/13 08:53:17;;;;;;;;;;;12.10;99.90;;;;;;5016241;28;19920;-77
2021/10/13 08:55:43;;;;;;;;;;;12.00;99.90;;;;;;4997996;28;20350;-78
2021/10/13 08:58:12;;;;;;;;;;;12.00;99.90;;;;;;4999534;28;19937;-78
2021/10/13 09:00:38;;;;;;;;;;;12.00;99.90;;;;;;5016575;28;19915;-78
2021/10/13 09:03:04;;;;;;;;;;;12.00;99.90;;;;;;4997433;28;19929;-77
2021/10/13 09:05:30;;;;;;;;;;;12.10;99.90;;;;;;5013090;28;19922;-79
2021/10/13 09:07:58;;;;;;;;;;;12.30;99.90;;;;;;4998585;28;19910;-77
2021/10/13 09:10:28;;;;;;;;;;;12.50;99.90;;;;;;5016248;28;19914;-77
2021/10/13 09:12:53;;;;;;;;;;;12.60;99.90;;;;;;5015010;28;19909;-77
2021/10/13 09:15:23;;;;;;;;;;;12.80;99.90;;;;;;4997742;28;19922;-78
2021/10/13 09:17:49;;;;;;;;;;;12.90;99.90;;;;;;5015761;28;19949;-79
2021/10/13 09:20:15;;;;;;;;;;;12.90;99.90;;;;;;4998273;28;19914;-78
2021/10/13 09:22:53;;;;;;;;;;;12.90;99.90;;;;;;5012741;28;19917;-77
2021/10/13 09:25:18;;;;;;;;;;;13.00;99.90;;;;;;4998152;28;19921;-78
2021/10/13 09:27:45;;;;;;;;;;;12.90;99.90;;;;;;4997496;28;20309;-78
2021/10/13 09:30:11;;;;;;;;;;;13.00;99.90;;;;;;5015480;28;19921;-78
2021/10/13 09:32:40;;;;;;;;;;;13.10;99.90;;;;;;4995339;28;20293;-78
2021/10/13 09:35:06;;;;;;;;;;;13.30;99.90;;;;;;4997281;28;19996;-77
2021/10/13 09:37:45;;;;;;;;;;;13.40;99.90;;;;;;5014945;28;20007;-79
2021/10/13 09:40:11;;;;;;;;;;;13.50;99.90;;;;;;4997712;28;20004;-80
2021/10/13 09:42:38;;;;;;;;;;;13.50;99.90;;;;;;4998156;28;19936;-80
2021/10/13 09:45:04;;;;;;;;;;;13.50;99.90;;;;;;5015832;28;19916;-80
2021/10/13 09:47:30;;;;;;;;;;;13.60;99.90;;;;;;4997517;28;20340;-80
2021/10/13 09:49:56;;;;;;;;;;;13.70;99.90;;;;;;5013204;28;20421;-80
2021/10/13 09:52:27;;;;;;;;;;;13.70;99.90;;;;;;4992623;28;19964;-79
2021/10/13 09:55:00;;;;;;;;;;;13.80;99.90;;;;;;4978819;28;19918;-81
2021/10/13 09:57:33;;;;;;;;;;;13.90;99.90;;;;;;4987642;28;20369;-81
2021/10/13 10:00:12;;;;;;;;;;;13.90;99.90;;;;;;5015892;28;19913;-78
2021/10/13 10:02:57;;;;;;;;;;;13.90;99.90;;;;;;5013857;28;19917;-78
2021/10/13 10:05:24;;;;;;;;;;;14.00;99.90;;;;;;5015051;28;20301;-76
2021/10/13 10:08:00;;;;;;;;;;;14.00;99.90;;;;;;4997030;28;19914;-77
2021/10/13 10:10:25;;;;;;;;;;;14.00;99.90;;;;;;4997214;28;19914;-78
2021/10/13 10:13:07;;;;;;;;;;;14.00;99.90;;;;;;4997195;28;19989;-77
2021/10/13 10:15:37;;;;;;;;;;;14.10;99.90;;;;;;5014616;28;19926;-78
2021/10/13 10:18:24;;;;;;;;;;;14.30;99.90;;;;;;5014791;28;19914;-78
2021/10/13 10:20:51;;;;;;;;;;;14.30;99.90;;;;;;4997265;28;20274;-79
2021/10/13 10:23:27;;;;;;;;;;;14.20;99.90;;;;;;4998098;28;20389;-79
2021/10/13 10:25:53;;;;;;;;;;;14.20;99.90;;;;;;4996794;28;20003;-79
2021/10/13 10:28:38;;;;;;;;;;;14.20;99.90;;;;;;4996945;28;20422;-79
2021/10/13 10:31:22;;;;;;;;;;;14.20;99.90;;;;;;5004981;28;19921;-77
2021/10/13 10:33:48;;;;;;;;;;;14.30;99.90;;;;;;4996737;28;20013;-79
2021/10/13 10:36:14;;;;;;;;;;;14.20;99.90;;;;;;5014543;28;19918;-78
2021/10/13 10:38:47;;;;;;;;;;;14.30;99.90;;;;;;4996596;28;19940;-78
2021/10/13 10:41:13;;;;;;;;;;;14.40;99.90;;;;;;5015150;28;20297;-77
2021/10/13 10:43:39;;;;;;;;;;;14.40;99.90;;;;;;4997226;28;19914;-77
2021/10/13 10:46:04;;;;;;;;;;;14.40;99.90;;;;;;4996501;28;19959;-77
2021/10/13 10:48:43;;;;;;;;;;;14.30;99.90;;;;;;5014398;28;19913;-80
2021/10/13 10:51:09;;;;;;;;;;;14.20;99.90;;;;;;4995285;28;19968;-81
2021/10/13 10:53:39;;;;;;;;;;;14.20;99.90;;;;;;4997189;28;20358;-82
2021/10/13 10:56:16;;;;;;;;;;;14.20;99.90;;;;;;5014005;28;19939;-80
2021/10/13 10:58:44;;;;;;;;;;;14.00;99.90;;;;;;5015019;28;19913;-81
2021/10/13 11:01:13;;;;;;;;;;;13.70;99.90;;;;;;5013903;28;20405;-77
2021/10/13 11:03:42;;;;;;;;;;;13.40;99.90;;;;;;5013398;28;19960;-81
2021/10/13 11:06:09;;;;;;;;;;;13.20;99.90;;;;;;4991043;28;19918;-77
2021/10/13 11:08:35;;;;;;;;;;;12.90;99.90;;;;;;4994238;28;19914;-78
2021/10/13 11:11:13;;;;;;;;;;;12.60;99.90;;;;;;4993161;28;19921;-77
2021/10/13 11:13:39;;;;;;;;;;;12.50;99.90;;;;;;4993613;28;19921;-76
2021/10/13 11:16:08;;;;;;;;;;;12.60;99.90;;;;;;4993066;28;19922;-78
2021/10/13 11:18:34;;;;;;;;;;;12.70;99.90;;;;;;4993255;28;19914;-78
2021/10/13 11:21:08;;;;;;;;;;;12.80;99.90;;;;;;4994496;28;19921;-83
2021/10/13 11:23:33;;;;;;;;;;;12.80;99.90;;;;;;4993030;28;20017;-78
2021/10/13 11:25:59;;;;;;;;;;;12.90;99.90;;;;;;4993901;28;19996;-77
2021/10/13 11:28:31;;;;;;;;;;;12.90;99.90;;;;;;4992588;28;20353;-79
2021/10/13 11:30:57;;;;;;;;;;;13.00;99.90;;;;;;4992506;28;20408;-77
2021/10/13 11:33:23;;;;;;;;;;;13.20;99.90;;;;;;4993019;28;19914;-76
2021/10/13 11:35:49;;;;;;;;;;;13.20;99.90;;;;;;4994283;28;19918;-78
2021/10/13 11:38:19;;;;;;;;;;;13.30;99.90;;;;;;4992711;28;19914;-78
2021/10/13 11:40:45;;;;;;;;;;;13.30;99.90;;;;;;4992582;28;19914;-78
2021/10/13 11:43:13;;;;;;;;;;;13.30;99.90;;;;;;4992436;28;20437;-78
2021/10/13 11:45:52;;;;;;;;;;;13.30;99.90;;;;;;4981616;28;19918;-78
2021/10/13 11:48:22;;;;;;;;;;;13.30;99.90;;;;;;4993788;28;19918;-77
2021/10/13 11:50:47;;;;;;;;;;;13.40;99.90;;;;;;4991370;28;20398;-79
2021/10/13 11:53:13;;;;;;;;;;;13.50;99.90;;;;;;4992641;28;19920;-79
2021/10/13 11:55:38;;;;;;;;;;;13.60;99.90;;;;;;4991463;28;19988;-78
2021/10/13 11:58:05;;;;;;;;;;;13.60;99.90;;;;;;4992708;28;19914;-77
2021/10/13 12:00:31;;;;;;;;;;;13.80;99.90;;;;;;4993525;28;19913;-80
2021/10/13 12:03:02;;;;;;;;;;;14.00;99.90;;;;;;4995090;28;19944;-78
2021/10/13 12:05:29;;;;;;;;;;;14.00;99.90;;;;;;4986296;28;19913;-77
2021/10/13 12:07:59;;;;;;;;;;;14.00;99.90;;;;;;4994526;28;19918;-77
2021/10/13 12:10:32;;;;;;;;;;;13.90;99.90;;;;;;5013461;28;19918;-78
2021/10/13 12:13:02;;;;;;;;;;;13.80;99.90;;;;;;5013461;28;19964;-77
2021/10/13 12:15:28;;;;;;;;;;;13.80;99.90;;;;;;4994852;28;20012;-78
2021/10/13 12:18:07;;;;;;;;;;;13.80;99.90;;;;;;4995440;28;20342;-77
2021/10/13 12:20:32;;;;;;;;;;;13.80;99.90;;;;;;4996432;28;19914;-78
2021/10/13 12:22:58;;;;;;;;;;;13.80;99.90;;;;;;5017265;28;19913;-79
2021/10/13 12:25:23;;;;;;;;;;;13.90;99.90;;;;;;4998968;28;19921;-78
2021/10/13 12:27:49;;;;;;;;;;;13.90;99.90;;;;;;5016897;28;19913;-77
2021/10/13 12:30:26;;;;;;;;;;;13.80;99.90;;;;;;5016964;28;19913;-78
2021/10/13 12:33:21;;;;;;;;;;;13.80;99.90;;;;;;4984829;28;19922;-78
2021/10/13 12:35:47;;;;;;;;;;;13.70;99.90;;;;;;4983691;28;19917;-77
2021/10/13 12:38:17;;;;;;;;;;;13.70;99.90;;;;;;5015819;28;19922;-78
2021/10/13 12:41:01;;;;;;;;;;;13.70;99.90;;;;;;5016092;28;19914;-76
2021/10/13 12:43:27;;;;;;;;;;;13.60;99.90;;;;;;4998089;28;19955;-77
2021/10/13 12:45:52;;;;;;;;;;;13.70;99.90;;;;;;4999424;28;19917;-76
2021/10/13 12:48:21;;;;;;;;;;;13.80;99.90;;;;;;5016277;28;19923;-75
2021/10/13 12:51:03;;;;;;;;;;;13.80;99.90;;;;;;4999086;28;19914;-78
2021/10/13 12:53:28;;;;;;;;;;;13.90;99.90;;;;;;5016171;28;19913;-78
2021/10/13 12:58:39;;;;;;;;;;;14.00;99.90;;;;;;5016839;28;19916;-77
2021/10/13 13:01:06;;;;;;;;;;;14.10;99.90;;;;;;4998389;28;19920;-79
2021/10/13 13:03:31;;;;;;;;;;;14.00;99.90;;;;;;5015807;28;19914;-78
2021/10/13 13:05:57;;;;;;;;;;;14.00;99.90;;;;;;4998618;28;20292;-80
2021/10/13 13:08:23;;;;;;;;;;;14.00;99.90;;;;;;5016120;28;19959;-77
2021/10/13 13:10:49;;;;;;;;;;;13.90;99.90;;;;;;4998650;28;19915;-78
2021/10/13 13:13:16;;;;;;;;;;;13.90;99.90;;;;;;5016489;28;19916;-79
2021/10/13 13:15:42;;;;;;;;;;;13.90;99.90;;;;;;4997464;28;19980;-77
2021/10/13 13:18:09;;;;;;;;;;;13.90;99.90;;;;;;5015137;28;20397;-77
2021/10/13 13:20:35;;;;;;;;;;;14.00;99.90;;;;;;5009102;28;20282;-77
2021/10/13 13:23:01;;;;;;;;;;;13.90;99.90;;;;;;4979202;28;20015;-78
2021/10/13 13:25:27;;;;;;;;;;;13.90;99.90;;;;;;5013939;28;20286;-78
2021/10/13 13:27:52;;;;;;;;;;;13.90;99.90;;;;;;5015708;28;19913;-78
2021/10/13 13:30:18;;;;;;;;;;;13.90;99.90;;;;;;5015455;28;19976;-77
2021/10/13 13:32:43;;;;;;;;;;;13.90;99.90;;;;;;5014814;28;19997;-77
2021/10/13 13:35:09;;;;;;;;;;;13.80;99.90;;;;;;5015096;28;20012;-77
2021/10/13 13:37:37;;;;;;;;;;;13.80;99.90;;;;;;4997942;28;20281;-78
2021/10/13 13:40:07;;;;;;;;;;;13.90;99.90;;;;;;5015267;28;19968;-77
2021/10/13 13:42:33;;;;;;;;;;;13.90;99.90;;;;;;4997947;28;19909;-77
2021/10/13 13:44:58;;;;;;;;;;;13.90;99.90;;;;;;5015673;28;20041;-77
2021/10/13 13:47:24;;;;;;;;;;;14.00;99.90;;;;;;5015724;28;19910;-78
2021/10/13 13:49:49;;;;;;;;;;;14.10;99.90;;;;;;5015327;28;19913;-78
2021/10/13 13:52:15;;;;;;;;;;;14.20;99.90;;;;;;5015489;28;20012;-78
2021/10/13 13:54:41;;;;;;;;;;;14.30;99.90;;;;;;5012332;28;19921;-76
2021/10/13 13:57:06;;;;;;;;;;;14.30;99.90;;;;;;4998037;28;20326;-78
2021/10/13 13:59:32;;;;;;;;;;;14.40;99.90;;;;;;5015373;28;19921;-77
2021/10/13 14:01:57;;;;;;;;;;;14.60;99.90;;;;;;5015252;28;19920;-78
2021/10/13 14:04:23;;;;;;;;;;;14.90;99.90;;;;;;5015184;28;19909;-78
2021/10/13 14:06:48;;;;;;;;;;;15.10;99.90;;;;;;5014536;28;19918;-77
2021/10/13 14:09:14;;;;;;;;;;;15.10;99.90;;;;;;5014878;28;19959;-76
2021/10/13 14:11:39;;;;;;;;;;;14.90;99.90;;;;;;4997607;28;19920;-77
2021/10/13 14:14:05;;;;;;;;;;;14.70;99.90;;;;;;5015061;28;19914;-78
2021/10/13 14:16:30;;;;;;;;;;;14.60;99.90;;;;;;4997199;28;19914;-76
2021/10/13 14:18:56;;;;;;;;;;;14.50;99.90;;;;;;5015571;28;19913;-77
2021/10/13 14:21:21;;;;;;;;;;;14.50;99.90;;;;;;4997797;28;19940;-78
2021/10/13 14:23:47;;;;;;;;;;;14.40;99.90;;;;;;4997741;28;20281;-77
2021/10/13 14:26:13;;;;;;;;;;;14.40;99.90;;;;;;5015073;28;20336;-78